Metar z połowy godziny Komunikat METAR ze strony awiacja.imgw.pl Metar G30 EPMM METAR EPMM 240430Z 29006KT CAVOK 11/09 Q1013 RMK 110 088 7/6=